الصفحة الرئيسية
METAR-TAF:

METAR-TAF

مطار :

Imperial County Airport (Boley Field)

إمبيريال, كاليفورنيا, الولايات المتحدة

دائرة عرض: 32-50-03N, خط طول: 115-34-43W, ارتفاع: 17 متر

مراقبة الطقس الحالي

تاريخ ووقت الإصدار 44 دقيقة قبل الساعة 20:53UTC
رياح هادئة
درجة الحرارة 30°درجة مئوية
الرطوبة 21%
ضغط 1013 hPa
الرؤية: 16.1 كم
سماء صافية

METAR: KIPL 182053Z AUTO 00000KT 10SM CLR 30/05 A2991 RMK AO2 SLP128 T03000050 58021

زمن: 14:37 (21:37 UTC)

توقعات

تاريخ ووقت الإصدار 4ساعات و 1 دقيقة قبل الساعة 17:36UTC
التوقعات صالحة من18 الساعة 18 UTC إلى 19 الساعة 18 UTC
ريح 5 عقدةمن اتجاهات متغيرة
الرؤية: 10 كم
سماء صافية
مؤقت
من 18 الساعة 19 UTC إلى 18 الساعة 23 UTC
ريح 6 عقدة من الشرق/الجنوب الشرقي
من 19 الساعة 0200 UTC
ريح 4 عقدة من الغرب
الرؤية: 10 كم
سماء صافية

TAF: KIPL 181736Z 1818/1918 VRB05KT P6SM SKC TEMPO 1819/1823 12006KT FM190200 28004KT P6SM SKC

أرصاد الطقس والتوقعات من أكثر من 4000 مطار (تقارير الطقس للمطار METAR والتنبؤ بالطقس بالمطارTAF).

المحطات المتاحة هي النقط الصفراء والحمراء على الخريطة.

حرك المؤشر فوق النقطة لمعرفة اسم المحطة.

ثم انقر لمعرفة أرصاد وتوقعات الطقس.

لتغيير الخارطة: اضغط على الأزرار الخضراء مع رمز الصليب الأسود للتكبير. على الزر الأخضر مع شرطة للتصغير، أو على الأسهم الخضراء للخرائط المجاورة.


METAR-TAF: